Pagrindinis puslapis
METAR-TAF:

METAR-TAF

Oro uostai :

Balikesyras, Turkija

platuma: 39-37N, ilguma: 027-55E, Aukštis: 101 m

Dabartinis oras

Ataskaita buvo paskelbta 1 valandą ir 17 minutes, ne 16:50 UTC
Vėjas 22 kt iš Šiaurės
Temperatūra 22°C
Drėgmė 65%
Slėgis 1019 hPa
Matomumas 10 km arba daugiau
nėra debesų žemiau 1500 m ir nėra kamuolinių lietaus debesų

METAR: LTBF 151650Z 01022KT CAVOK 22/15 Q1019 NOSIG

Laikas: 21:07 (18:07 UTC)

Prognozė

Ataskaita buvo paskelbta 1 valandą ir 27 minutes, ne 16:40 UTC
Prognozė galioja nuo 15 metu 18 UTC su 16 metu 03 UTC
Vėjas 12 kt iš Šiaurės
Matomumas 10 km arba daugiau
nėra debesų žemiau 1500 m ir nėra kamuolinių lietaus debesų

TAF: LTBF 151640Z 1518/1603 01012KT CAVOK

Orai ataskaitas ir orų prognozės (METAR, TAF).

turimą stotys yra geltonos ir raudonos taškus žemėlapyje.

Perkelti pele per norėdami pamatyti stoties vardą.

Tada spustelėkite, norėdami matyti oro stebėjimo ir prognozės.

Norėdami pakeisti žemėlapį: spustelėkite ant žalios mygtukų su juodo kryžiaus žemyn,; žalią mygtuką su brūkšneliu, jei norite nutolinti; arba žalių rodyklių gretimoms žemėlapius.


METAR-TAF: